Time;durP1;ratioP1;P1;durP2;ratioP2;P2;SDS_P1;SDS_P2;PMS_P1;PMS_P2;Temp;Humidity;BMP_temperature;BMP_pressure;BME280_temperature;BME280_humidity;BME280_pressure;Samples;Min_cycle;Max_cycle;Signal;HPM_P1;HPM_P2
2023/09/07 00:02:10;;;;;;;5.68;1.10;;;;;;;20.19;75.53;101106.75;5012469;28;20054;-43
2023/09/07 00:04:37;;;;;;;4.00;1.00;;;;;;;20.16;75.60;101113.19;5015285;28;20511;-44
2023/09/07 00:07:05;;;;;;;3.80;1.08;;;;;;;20.15;75.22;101105.97;5012675;28;20500;-45
2023/09/07 00:09:32;;;;;;;3.67;1.00;;;;;;;20.14;75.22;101093.09;5014371;28;20124;-45
2023/09/07 00:12:00;;;;;;;6.50;2.22;;;;;;;20.13;75.64;101085.84;5016492;28;20109;-43
2023/09/07 00:14:26;;;;;;;2.80;1.13;;;;;;;20.09;75.52;101085.06;5012373;28;20484;-44
2023/09/07 00:16:53;;;;;;;6.45;1.23;;;;;;;20.08;75.54;101080.63;5008744;28;20038;-45
2023/09/07 00:19:20;;;;;;;1.90;0.73;;;;;;;20.07;75.83;101079.06;5014354;28;20046;-44
2023/09/07 00:21:47;;;;;;;6.60;1.55;;;;;;;20.04;75.67;101073.00;5014610;28;20053;-44
2023/09/07 00:24:16;;;;;;;2.42;0.98;;;;;;;20.01;76.00;101061.78;5013891;28;20496;-44
2023/09/07 00:26:42;;;;;;;4.13;0.93;;;;;;;20.01;75.79;101068.19;5014103;28;20054;-44
2023/09/07 00:29:09;;;;;;;5.65;1.33;;;;;;;19.99;75.73;101061.38;5013840;28;20061;-44
2023/09/07 00:31:36;;;;;;;12.55;2.10;;;;;;;19.97;76.05;101060.97;5014294;28;20054;-45
2023/09/07 00:34:03;;;;;;;2.90;1.00;;;;;;;19.93;76.20;101055.38;5014140;28;20038;-44
2023/09/07 00:36:30;;;;;;;2.42;1.10;;;;;;;19.91;76.10;101063.38;5014098;28;20096;-44
2023/09/07 00:38:57;;;;;;;3.22;1.08;;;;;;;19.90;75.92;101061.78;5013318;28;20515;-43
2023/09/07 00:41:24;;;;;;;3.90;1.40;;;;;;;19.93;76.09;101061.00;5012185;28;20042;-47
2023/09/07 00:43:51;;;;;;;1.33;0.70;;;;;;;19.97;76.19;101058.16;5013038;28;20116;-45
2023/09/07 00:46:18;;;;;;;4.10;1.48;;;;;;;19.99;76.07;101064.97;5013593;28;20046;-43
2023/09/07 00:48:45;;;;;;;5.72;1.30;;;;;;;20.00;76.37;101074.22;5013875;28;20104;-44
2023/09/07 00:51:12;;;;;;;2.22;0.82;;;;;;;20.00;76.28;101072.22;5014095;28;20049;-44
2023/09/07 00:53:39;;;;;;;3.03;1.00;;;;;;;20.00;76.29;101075.03;5012202;28;20049;-44
2023/09/07 00:56:07;;;;;;;3.13;1.35;;;;;;;20.03;76.52;101077.03;5016588;28;20038;-44
2023/09/07 00:58:33;;;;;;;5.93;2.70;;;;;;;20.03;76.29;101079.84;5013415;28;20046;-44
2023/09/07 01:01:00;;;;;;;5.07;0.98;;;;;;;20.03;76.40;101082.66;5016649;28;20057;-43
2023/09/07 01:03:27;;;;;;;3.85;1.30;;;;;;;20.05;76.79;101085.06;5005071;28;20053;-44
2023/09/07 01:06:20;;;;;;;3.40;1.58;;;;;;;19.99;76.65;101087.47;5014427;28;20122;-43
2023/09/07 01:08:51;;;;;;;5.22;2.10;;;;;;;19.96;76.78;101085.44;5013058;28;20044;-44
2023/09/07 01:11:26;;;;;;;5.78;1.90;;;;;;;19.91;76.88;101074.63;5016301;28;20500;-44
2023/09/07 01:13:56;;;;;;;6.10;2.00;;;;;;;19.89;77.01;101065.78;5010186;28;20117;-43
2023/09/07 01:16:23;;;;;;;3.28;2.22;;;;;;;19.87;76.77;101075.81;5013502;28;20042;-43
2023/09/07 01:18:51;;;;;;;4.30;2.58;;;;;;;19.82;77.19;101079.03;5013163;28;20056;-44
2023/09/07 01:21:19;;;;;;;8.40;4.15;;;;;;;19.78;77.37;101083.81;5012715;28;20104;-44
2023/09/07 01:23:47;;;;;;;7.85;4.25;;;;;;;19.74;77.58;101081.03;5013139;28;20483;-44
2023/09/07 01:26:14;;;;;;;7.05;3.10;;;;;;;19.71;78.10;101090.25;5013450;28;20488;-43
2023/09/07 01:28:41;;;;;;;8.10;3.40;;;;;;;19.67;78.18;101081.00;5012792;28;20129;-44
2023/09/07 01:31:09;;;;;;;6.40;2.60;;;;;;;19.65;78.04;101075.00;5012778;28;20529;-44
2023/09/07 01:33:37;;;;;;;10.93;5.03;;;;;;;19.63;78.40;101074.59;5013046;28;20050;-43
2023/09/07 01:36:04;;;;;;;10.05;5.35;;;;;;;19.59;78.18;101068.16;5013220;28;20411;-43
2023/09/07 01:38:31;;;;;;;9.10;3.30;;;;;;;19.57;78.21;101069.75;5011649;28;20384;-44
2023/09/07 01:40:58;;;;;;;8.77;2.42;;;;;;;19.54;78.65;101073.38;5012073;28;20042;-46
2023/09/07 01:43:25;;;;;;;3.25;2.05;;;;;;;19.52;78.71;101070.13;5011532;28;20077;-44
2023/09/07 01:45:52;;;;;;;7.55;1.70;;;;;;;19.50;78.76;101067.75;5011765;28;20133;-43
2023/09/07 01:48:18;;;;;;;5.55;2.17;;;;;;;19.46;79.03;101080.97;5015024;28;20560;-44
2023/09/07 01:50:45;;;;;;;7.65;2.20;;;;;;;19.42;78.88;101074.53;5012319;28;20042;-49
2023/09/07 01:53:12;;;;;;;6.32;2.15;;;;;;;19.37;78.92;101072.09;5002970;28;20050;-44
2023/09/07 01:55:39;;;;;;;6.63;2.05;;;;;;;19.33;79.47;101072.06;5013046;28;20512;-45
2023/09/07 01:58:06;;;;;;;7.32;2.00;;;;;;;19.29;79.42;101064.84;5001323;28;20042;-45
2023/09/07 02:00:39;;;;;;;6.97;2.70;;;;;;;19.24;79.65;101066.06;5013543;28;20058;-47
2023/09/07 02:03:06;;;;;;;8.85;3.40;;;;;;;19.21;79.69;101066.03;5013298;28;20137;-45
2023/09/07 02:05:33;;;;;;;7.40;3.95;;;;;;;19.20;80.06;101068.03;5005745;28;20117;-43
2023/09/07 02:08:00;;;;;;;6.38;3.50;;;;;;;19.14;80.13;101061.19;5001368;28;20052;-44
2023/09/07 02:10:27;;;;;;;10.63;4.88;;;;;;;19.10;80.04;101051.16;5011643;28;20057;-43
2023/09/07 02:12:56;;;;;;;11.07;5.93;;;;;;;19.03;80.27;101048.31;5012335;28;20507;-44
2023/09/07 02:15:23;;;;;;;7.10;4.20;;;;;;;19.00;80.40;101035.09;5011234;28;20085;-47
2023/09/07 02:17:52;;;;;;;13.27;4.72;;;;;;;18.97;80.42;101038.66;5010782;28;20046;-43
2023/09/07 02:20:20;;;;;;;8.73;3.53;;;;;;;18.95;80.53;101038.28;5012058;28;20038;-44
2023/09/07 02:22:47;;;;;;;12.18;4.82;;;;;;;18.93;80.77;101040.69;5008611;28;20128;-45
2023/09/07 02:25:14;;;;;;;10.70;4.47;;;;;;;18.90;81.05;101041.47;5012154;28;20476;-44
2023/09/07 02:27:40;;;;;;;17.30;4.63;;;;;;;18.87;81.15;101034.63;5012253;28;20049;-43
2023/09/07 02:30:07;;;;;;;11.30;4.55;;;;;;;18.85;81.21;101040.63;5011094;28;20049;-45
2023/09/07 02:32:34;;;;;;;12.75;5.45;;;;;;;18.84;81.38;101039.03;5011917;28;20512;-43
2023/09/07 02:35:01;;;;;;;8.80;3.53;;;;;;;18.80;81.83;101038.19;5011770;28;20046;-45
2023/09/07 02:37:28;;;;;;;5.90;3.38;;;;;;;18.81;81.71;101037.00;5010563;28;20378;-45
2023/09/07 02:39:55;;;;;;;4.07;2.85;;;;;;;18.81;81.98;101039.81;5011165;28;20056;-43
2023/09/07 02:42:24;;;;;;;5.30;2.55;;;;;;;18.79;82.31;101028.19;5010659;28;20499;-45
2023/09/07 02:44:54;;;;;;;;;;;;;;;18.77;81.73;101026.97;5009633;28;20049;-46
2023/09/07 02:47:21;;;;;;;12.52;4.22;;;;;;;18.76;81.46;101026.19;5011281;28;19926;-43
2023/09/07 02:49:48;;;;;;;4.00;2.42;;;;;;;18.75;81.81;101029.34;5014004;28;20049;-45
2023/09/07 02:52:15;;;;;;;7.38;3.17;;;;;;;18.75;82.24;101018.94;5011227;28;20038;-43
2023/09/07 02:54:42;;;;;;;9.55;3.00;;;;;;;18.74;82.15;101022.16;5011302;28;20385;-44
2023/09/07 02:57:08;;;;;;;8.75;3.15;;;;;;;18.75;82.41;101018.94;4992405;28;20107;-44
2023/09/07 02:59:35;;;;;;;8.13;3.22;;;;;;;18.77;82.52;101024.97;5009298;28;20046;-44
2023/09/07 03:02:03;;;;;;;9.07;4.05;;;;;;;18.77;82.35;101022.16;5081656;23;20055;-45
2023/09/07 03:04:30;;;;;;;12.18;3.40;;;;;;;18.76;82.35;101023.38;4964122;28;20042;-45
2023/09/07 03:06:57;;;;;;;6.68;2.80;;;;;;;18.74;82.51;101028.53;4976414;28;20046;-45
2023/09/07 03:09:24;;;;;;;4.22;2.72;;;;;;;18.74;82.62;101022.94;4969409;28;20440;-46
2023/09/07 03:11:51;;;;;;;6.70;2.80;;;;;;;18.72;83.02;101019.72;4962514;28;20057;-45
2023/09/07 03:14:17;;;;;;;5.97;2.67;;;;;;;18.69;83.00;101020.50;4971424;28;20050;-45
2023/09/07 03:16:44;;;;;;;5.03;2.22;;;;;;;18.65;83.21;101025.31;4970504;28;20507;-46
2023/09/07 03:19:11;;;;;;;8.90;3.42;;;;;;;18.63;83.29;101026.91;4974793;28;20086;-45
2023/09/07 03:21:38;;;;;;;8.45;2.97;;;;;;;18.58;83.27;101025.28;4974703;28;20038;-49
2023/09/07 03:24:05;;;;;;;7.68;2.55;;;;;;;18.56;83.32;101027.66;4971884;28;20049;-47
2023/09/07 03:26:32;;;;;;;6.97;2.55;;;;;;;18.55;83.49;101026.06;4970787;28;20106;-46
2023/09/07 03:28:59;;;;;;;8.05;3.55;;;;;;;18.54;83.53;101035.66;4969444;28;20057;-51
2023/09/07 03:31:27;;;;;;;7.82;2.30;;;;;;;18.51;83.67;101032.84;4972418;28;20070;-46
2023/09/07 03:33:54;;;;;;;4.32;2.88;;;;;;;18.47;83.78;101026.38;4971692;28;20101;-47
2023/09/07 03:36:21;;;;;;;5.18;2.55;;;;;;;18.43;83.99;101029.16;4954859;28;20092;-45
2023/09/07 03:38:48;;;;;;;8.07;3.08;;;;;;;18.39;84.00;101021.94;4970717;28;20416;-45
2023/09/07 03:41:15;;;;;;;8.15;3.40;;;;;;;18.36;84.26;101022.72;4970698;28;20038;-45
2023/09/07 03:43:42;;;;;;;7.82;3.45;;;;;;;18.34;84.35;101017.50;4970827;28;20086;-46
2023/09/07 03:46:09;;;;;;;6.80;2.75;;;;;;;18.34;84.73;101017.50;4975046;28;20047;-47
2023/09/07 03:48:36;;;;;;;7.85;3.55;;;;;;;18.37;84.52;101029.94;4972008;28;20050;-45
2023/09/07 03:51:07;;;;;;;11.75;3.55;;;;;;;18.37;84.72;101027.94;4971850;28;20515;-46
2023/09/07 03:53:33;;;;;;;11.73;5.38;;;;;;;18.38;84.56;101021.13;4970873;28;20153;-46
2023/09/07 03:56:03;;;;;;;12.48;3.95;;;;;;;18.38;84.85;101021.13;4972246;28;20049;-45
2023/09/07 03:58:30;;;;;;;10.85;5.10;;;;;;;18.37;84.96;101011.13;4972096;28;20138;-45
2023/09/07 04:01:01;;;;;;;11.65;5.03;;;;;;;18.35;85.00;101004.28;4972116;28;20050;-45
2023/09/07 04:03:28;;;;;;;12.65;5.78;;;;;;;18.27;85.17;101004.22;4971897;28;20560;-45
2023/09/07 04:05:55;;;;;;;13.63;6.03;;;;;;;18.18;85.24;100998.19;4971846;28;20054;-45
2023/09/07 04:08:22;;;;;;;11.07;5.30;;;;;;;18.13;85.51;101000.56;4971673;28;20055;-45
2023/09/07 04:10:49;;;;;;;13.95;5.38;;;;;;;18.06;85.82;100997.69;4971610;28;20082;-46
2023/09/07 04:13:16;;;;;;;9.25;4.63;;;;;;;18.04;86.08;101000.06;4971079;28;20047;-45
2023/09/07 04:15:44;;;;;;;7.82;4.93;;;;;;;18.04;86.28;101003.69;4971884;28;20101;-46
2023/09/07 04:18:16;;;;;;;15.05;6.35;;;;;;;18.03;86.55;101002.06;4971657;28;20445;-47
2023/09/07 04:20:43;;;;;;;9.23;5.70;;;;;;;18.03;86.77;100998.47;4957567;28;20038;-45
2023/09/07 04:23:10;;;;;;;10.95;6.15;;;;;;;18.06;86.70;100994.88;4971370;28;20512;-46
2023/09/07 04:25:39;;;;;;;9.90;5.82;;;;;;;18.08;86.82;100990.50;4971747;28;20050;-46
2023/09/07 04:28:06;;;;;;;17.70;7.22;;;;;;;18.08;87.05;100978.50;4971036;28;20082;-45
2023/09/07 04:30:42;;;;;;;12.48;6.72;;;;;;;18.06;87.34;100981.69;4973364;28;20508;-45
2023/09/07 04:33:09;;;;;;;16.48;6.82;;;;;;;18.05;87.33;100976.47;4977399;28;20043;-45
2023/09/07 04:35:36;;;;;;;13.77;7.18;;;;;;;18.06;87.54;100983.66;4973922;28;20050;-45
2023/09/07 04:38:03;;;;;;;10.23;5.88;;;;;;;18.06;87.77;100980.88;4975075;28;20488;-46
2023/09/07 04:40:30;;;;;;;16.05;6.30;;;;;;;18.07;88.07;100980.50;4977947;28;20133;-47
2023/09/07 04:42:57;;;;;;;13.15;8.02;;;;;;;18.08;87.85;100987.69;4973262;28;20513;-47
2023/09/07 04:45:24;;;;;;;11.48;7.63;;;;;;;18.08;88.07;100978.50;4974591;28;20039;-46
2023/09/07 04:47:51;;;;;;;14.65;7.15;;;;;;;18.05;88.35;100980.09;4975815;28;20066;-45
2023/09/07 04:50:18;;;;;;;11.95;6.72;;;;;;;18.01;88.58;100975.63;4975215;28;20108;-45
2023/09/07 04:52:45;;;;;;;14.30;7.00;;;;;;;18.00;88.55;100971.25;4974146;28;20047;-46
2023/09/07 04:55:12;;;;;;;16.55;6.57;;;;;;;17.98;88.83;100970.81;4973920;28;20051;-45
2023/09/07 04:57:38;;;;;;;19.85;9.27;;;;;;;18.00;89.00;100971.25;4974865;28;20502;-48
2023/09/07 05:00:07;;;;;;;13.77;7.68;;;;;;;18.04;89.02;100977.66;4973714;28;20034;-44
2023/09/07 05:02:40;;;;;;;14.13;7.03;;;;;;;18.05;89.21;100980.09;4974551;28;20062;-45
2023/09/07 05:05:07;;;;;;;14.13;6.80;;;;;;;18.07;89.30;100983.31;4976848;28;20046;-47
2023/09/07 05:07:34;;;;;;;13.30;6.60;;;;;;;18.08;89.34;100972.91;4974121;28;20508;-45
2023/09/07 05:10:01;;;;;;;17.02;8.30;;;;;;;18.09;89.62;100986.50;4971234;28;20046;-45
2023/09/07 05:12:29;;;;;;;14.48;7.72;;;;;;;18.12;89.78;100990.53;4970782;28;20046;-46
2023/09/07 05:14:56;;;;;;;12.48;6.43;;;;;;;18.13;89.78;100984.56;4971594;28;20055;-45
2023/09/07 05:17:23;;;;;;;16.05;7.93;;;;;;;18.15;89.84;100990.56;4976939;28;20133;-45
2023/09/07 05:19:50;;;;;;;18.25;7.45;;;;;;;18.17;89.92;100981.75;4974390;28;20050;-45
2023/09/07 05:22:17;;;;;;;13.23;6.90;;;;;;;18.19;90.10;100990.56;4970646;28;20134;-45
2023/09/07 05:24:46;;;;;;;19.88;8.57;;;;;;;18.20;90.04;100990.19;4976698;28;20094;-45
2023/09/07 05:27:13;;;;;;;16.15;7.13;;;;;;;18.19;90.11;100994.16;4973957;28;20485;-45
2023/09/07 05:29:40;;;;;;;12.40;6.95;;;;;;;18.20;90.25;100989.38;4974199;28;20404;-45
2023/09/07 05:32:09;;;;;;;17.58;6.72;;;;;;;18.22;90.48;100989.78;4972841;28;20062;-45
2023/09/07 05:34:36;;;;;;;17.23;7.60;;;;;;;18.25;90.59;100984.22;4974086;28;20405;-45
2023/09/07 05:37:03;;;;;;;14.23;8.50;;;;;;;18.28;90.78;100982.63;4973924;28;20572;-45
2023/09/07 05:39:30;;;;;;;23.95;11.98;;;;;;;18.27;90.58;100981.00;4973216;28;20134;-45
2023/09/07 05:41:57;;;;;;;18.02;9.57;;;;;;;18.25;90.89;100972.19;4974140;28;20808;-45
2023/09/07 05:44:23;;;;;;;21.83;10.30;;;;;;;18.26;90.85;100979.41;4973836;28;20501;-45
2023/09/07 05:46:50;;;;;;;22.23;10.80;;;;;;;18.25;91.16;100983.41;4974693;28;20042;-46
2023/09/07 05:49:17;;;;;;;19.13;10.63;;;;;;;18.24;91.44;100982.59;4973643;28;20124;-46
2023/09/07 05:51:45;;;;;;;22.13;11.50;;;;;;;18.24;91.70;100985.38;4973133;28;20058;-45
2023/09/07 05:54:12;;;;;;;26.65;12.95;;;;;;;18.24;91.86;100976.22;4972855;28;20102;-45
2023/09/07 05:56:39;;;;;;;21.63;13.35;;;;;;;18.26;92.03;100976.59;4973715;28;20069;-46
2023/09/07 05:59:06;;;;;;;19.33;12.63;;;;;;;18.29;92.29;100975.84;4971737;28;20054;-49
2023/09/07 06:01:32;;;;;;;22.02;12.88;;;;;;;18.30;92.40;100974.63;4972418;28;20061;-46
2023/09/07 06:03:59;;;;;;;26.67;14.10;;;;;;;18.27;92.42;100979.00;4972875;28;20046;-45
2023/09/07 06:06:26;;;;;;;26.23;13.93;;;;;;;18.23;92.49;100983.81;4975423;28;20129;-45
2023/09/07 06:08:53;;;;;;;23.23;11.65;;;;;;;18.20;92.63;100987.38;4972396;28;20058;-45
2023/09/07 06:11:20;;;;;;;22.90;13.98;;;;;;;18.20;92.67;100997.78;4975832;28;20065;-45
2023/09/07 06:13:47;;;;;;;21.95;12.32;;;;;;;18.19;93.00;100990.56;4973452;28;20070;-46
2023/09/07 06:16:14;;;;;;;22.38;12.73;;;;;;;18.19;93.21;100990.56;4973953;28;20407;-45
2023/09/07 06:18:40;;;;;;;23.67;13.43;;;;;;;18.17;93.52;100992.94;4974538;28;20051;-46
2023/09/07 06:21:07;;;;;;;23.38;13.57;;;;;;;18.16;93.34;100985.75;4970323;28;20042;-48
2023/09/07 06:23:34;;;;;;;23.02;14.18;;;;;;;18.14;93.77;100988.13;4976859;28;20042;-45
2023/09/07 06:26:01;;;;;;;28.50;12.23;;;;;;;18.12;93.97;100990.53;4970783;28;20049;-47
2023/09/07 06:28:29;;;;;;;25.35;13.50;;;;;;;18.13;94.05;100992.16;4970899;28;20058;-45
2023/09/07 06:30:56;;;;;;;24.00;12.35;;;;;;;18.15;94.04;101000.97;4967904;28;20101;-49
2023/09/07 06:33:23;;;;;;;41.55;14.30;;;;;;;18.16;94.19;100991.38;4952056;28;20066;-45
2023/09/07 06:35:50;;;;;;;28.20;12.20;;;;;;;18.17;94.50;100995.75;4973787;28;20552;-45
2023/09/07 06:38:17;;;;;;;24.25;11.77;;;;;;;18.17;94.82;100993.75;4972492;28;20047;-45
2023/09/07 06:40:49;;;;;;;26.83;11.02;;;;;;;18.20;94.74;100997.78;4953151;28;20078;-49
2023/09/07 06:43:17;;;;;;;21.48;10.73;;;;;;;18.23;94.64;100995.00;4971253;28;20043;-45
2023/09/07 06:45:44;;;;;;;24.75;11.80;;;;;;;18.27;94.63;101014.63;4971793;28;20062;-45
2023/09/07 06:48:12;;;;;;;20.92;10.65;;;;;;;18.32;94.79;101010.69;4972696;28;20050;-45
2023/09/07 06:50:39;;;;;;;22.08;10.57;;;;;;;18.38;95.06;101006.28;4972250;28;20078;-45
2023/09/07 06:53:06;;;;;;;21.85;10.60;;;;;;;18.42;94.79;101002.34;4972608;28;20049;-44
2023/09/07 06:55:33;;;;;;;19.50;9.82;;;;;;;18.43;95.30;101003.91;4972722;28;20465;-47
2023/09/07 06:58:01;;;;;;;23.20;11.10;;;;;;;18.49;94.93;101013.59;4972118;28;20046;-44
2023/09/07 07:00:28;;;;;;;25.08;10.18;;;;;;;18.53;95.29;101017.22;4972670;28;20050;-44
2023/09/07 07:02:55;;;;;;;26.80;9.48;;;;;;;18.58;95.49;101024.47;4955435;28;20039;-44
2023/09/07 07:05:28;;;;;;;22.25;9.60;;;;;;;18.61;95.25;101027.28;4970842;28;20145;-48
2023/09/07 07:07:55;;;;;;;15.82;8.95;;;;;;;18.64;95.42;101018.09;4964654;28;20043;-49
2023/09/07 07:10:22;;;;;;;26.98;8.68;;;;;;;18.69;95.64;101025.34;4972501;28;20043;-44
2023/09/07 07:12:49;;;;;;;21.92;9.27;;;;;;;18.72;95.75;101030.94;4969754;28;20101;-43
2023/09/07 07:15:16;;;;;;;22.30;9.48;;;;;;;18.76;95.74;101026.19;4973165;28;20381;-44
2023/09/07 07:17:43;;;;;;;18.58;8.50;;;;;;;18.80;95.61;101024.16;4972926;28;20043;-44
2023/09/07 07:20:10;;;;;;;18.15;7.68;;;;;;;18.85;95.88;101020.97;4970712;28;20046;-43
2023/09/07 07:22:37;;;;;;;26.58;9.13;;;;;;;18.91;95.98;101029.00;4972240;28;20039;-43
2023/09/07 07:25:07;;;;;;;22.67;10.35;;;;;;;18.93;95.96;101029.44;4972711;28;20051;-46
2023/09/07 07:27:36;;;;;;;15.02;7.75;;;;;;;18.93;95.71;101029.44;4972487;28;20113;-43
2023/09/07 07:30:03;;;;;;;21.08;8.68;;;;;;;18.93;95.64;101024.63;4954932;28;20142;-43
2023/09/07 07:32:30;;;;;;;17.50;8.18;;;;;;;18.94;95.73;101029.03;4970365;28;20050;-43
2023/09/07 07:34:57;;;;;;;19.67;8.20;;;;;;;18.95;95.88;101021.44;4964027;28;20058;-43
2023/09/07 07:37:24;;;;;;;15.60;7.22;;;;;;;18.95;96.09;101016.63;4972170;28;20393;-42
2023/09/07 07:39:51;;;;;;;18.83;8.85;;;;;;;18.96;95.81;101014.59;4967449;28;20054;-43
2023/09/07 07:42:18;;;;;;;15.50;8.68;;;;;;;18.99;96.13;101014.63;4970134;28;20067;-45
2023/09/07 07:44:45;;;;;;;28.08;9.25;;;;;;;19.07;96.13;101015.44;4971215;28;20050;-45
2023/09/07 07:47:12;;;;;;;24.70;8.80;;;;;;;19.11;95.85;101014.28;4972246;28;20051;-45
2023/09/07 07:49:39;;;;;;;23.77;8.43;;;;;;;19.17;95.88;101020.28;4969300;28;20086;-46
2023/09/07 07:52:06;;;;;;;21.95;8.07;;;;;;;19.23;96.04;101013.09;4960650;28;20050;-45
2023/09/07 07:54:36;;;;;;;17.38;8.20;;;;;;;19.29;95.81;101017.13;4969256;28;20046;-44
2023/09/07 07:57:03;;;;;;;16.80;7.40;;;;;;;19.30;95.36;101015.94;4970672;28;20488;-45
2023/09/07 07:59:30;;;;;;;21.00;9.13;;;;;;;19.34;95.50;101022.34;4963989;28;20043;-44
2023/09/07 08:01:57;;;;;;;22.23;7.75;;;;;;;19.38;95.37;101023.19;4959998;28;20138;-44
2023/09/07 08:04:24;;;;;;;22.95;8.23;;;;;;;19.39;95.52;101019.97;4972938;28;20607;-44
2023/09/07 08:06:56;;;;;;;13.77;7.32;;;;;;;19.43;95.65;101020.00;4962637;28;20038;-44
2023/09/07 08:09:23;;;;;;;22.05;7.38;;;;;;;19.48;95.24;101028.03;4956206;28;20070;-45
2023/09/07 08:11:51;;;;;;;17.67;7.50;;;;;;;19.57;95.49;101025.63;4974299;28;20046;-47
2023/09/07 08:14:18;;;;;;;16.10;6.97;;;;;;;19.66;95.20;101026.03;4972855;28;20047;-45
2023/09/07 08:16:45;;;;;;;14.40;6.80;;;;;;;19.74;95.06;101024.03;4973243;28;20436;-44
2023/09/07 08:19:12;;;;;;;21.08;8.30;;;;;;;19.77;94.57;101024.03;4956548;28;20133;-46
2023/09/07 08:21:41;;;;;;;23.77;8.00;;;;;;;19.81;94.37;101036.06;4970601;28;20103;-51
2023/09/07 08:24:11;;;;;;;;;;;;;;;19.82;94.44;101020.84;4974059;28;20039;-43
2023/09/07 08:26:38;;;;;;;11.88;6.65;;;;;;;19.85;94.28;101013.59;4971751;28;19984;-47
2023/09/07 08:29:08;;;;;;;17.20;6.75;;;;;;;19.87;94.35;101017.63;4971423;28;20050;-45
2023/09/07 08:31:35;;;;;;;16.48;6.93;;;;;;;19.89;93.82;101020.81;4974468;28;20091;-46
2023/09/07 08:34:07;;;;;;;17.73;7.65;;;;;;;19.95;93.92;101024.84;4974121;28;20090;-46
2023/09/07 08:36:34;;;;;;;20.80;6.93;;;;;;;19.99;94.08;101011.59;4973994;28;20050;-44
2023/09/07 08:39:05;;;;;;;16.63;7.45;;;;;;;20.05;94.39;101015.59;4975409;28;20050;-51
2023/09/07 08:41:41;;;;;;;;;;;;;;;20.04;94.19;101016.78;4970789;28;20452;-46
2023/09/07 08:44:27;;;;;;;16.77;6.88;;;;;;;20.08;94.29;101013.19;4969021;28;21902;-51
2023/09/07 08:46:55;;;;;;;15.25;6.07;;;;;;;20.11;94.27;101020.81;4969080;28;20047;-46
2023/09/07 08:49:23;;;;;;;21.42;6.95;;;;;;;20.17;94.38;101019.19;4970386;28;20046;-44
2023/09/07 08:51:51;;;;;;;19.30;6.60;;;;;;;20.23;94.47;101020.38;4971871;28;20054;-46
2023/09/07 08:54:19;;;;;;;18.05;6.40;;;;;;;20.31;94.32;101016.38;4970634;28;20085;-45
2023/09/07 08:56:47;;;;;;;12.70;6.15;;;;;;;20.36;93.96;101022.41;4970951;28;20054;-46
2023/09/07 08:59:14;;;;;;;16.17;7.03;;;;;;;20.45;93.73;101030.41;4972814;28;20070;-44
2023/09/07 09:01:41;;;;;;;15.40;6.43;;;;;;;20.63;94.54;101037.59;4971899;28;20057;-44
2023/09/07 09:04:08;;;;;;;26.63;6.85;;;;;;;21.17;93.56;101026.97;4972648;28;20038;-44
2023/09/07 09:06:35;;;;;;;22.13;5.70;;;;;;;21.81;92.59;101024.53;4970769;28;20415;-45
2023/09/07 09:09:05;;;;;;;17.40;6.45;;;;;;;22.66;91.03;101026.56;4971779;28;20043;-44
2023/09/07 09:11:32;;;;;;;19.55;7.53;;;;;;;22.97;89.03;101019.72;4973410;28;20488;-44
2023/09/07 09:13:58;;;;;;;18.40;8.95;;;;;;;22.90;88.87;101014.97;4969448;28;20501;-44
2023/09/07 09:16:25;;;;;;;13.63;6.22;;;;;;;22.76;88.39;101014.34;4972691;28;20081;-46
2023/09/07 09:18:58;;;;;;;15.27;6.63;;;;;;;22.62;88.75;101006.00;4973239;28;20049;-45
2023/09/07 09:21:26;;;;;;;19.00;6.95;;;;;;;22.48;87.95;101003.38;4966975;28;20070;-45
2023/09/07 09:23:56;;;;;;;21.92;6.35;;;;;;;22.39;87.79;101009.50;4971459;28;20050;-42
2023/09/07 09:26:23;;;;;;;14.23;6.10;;;;;;;22.32;87.33;101006.75;4972541;28;20579;-43
2023/09/07 09:28:55;;;;;;;13.40;6.40;;;;;;;22.28;87.19;101003.97;4957883;28;20051;-44
2023/09/07 09:31:24;;;;;;;19.52;6.78;;;;;;;22.27;86.63;100999.53;4971837;28;20097;-45
2023/09/07 09:33:53;;;;;;;14.48;7.15;;;;;;;22.30;86.63;100998.72;4973397;28;20050;-45
2023/09/07 09:36:21;;;;;;;16.33;5.97;;;;;;;22.39;86.15;101004.66;4971366;28;20146;-47
2023/09/07 09:38:50;;;;;;;12.80;6.47;;;;;;;22.58;85.48;101008.09;4969986;28;20485;-45
2023/09/07 09:41:17;;;;;;;18.98;7.95;;;;;;;22.65;84.90;101005.19;4971600;28;20051;-44
2023/09/07 09:43:49;;;;;;;18.50;6.90;;;;;;;22.61;84.17;101001.59;4974212;28;20142;-52
2023/09/07 09:46:15;;;;;;;17.00;6.30;;;;;;;22.54;84.42;101008.13;4968507;28;20074;-45
2023/09/07 09:48:44;;;;;;;13.65;6.57;;;;;;;22.44;84.21;101009.84;4972003;28;20495;-46
2023/09/07 09:51:12;;;;;;;12.93;6.25;;;;;;;22.38;84.17;101011.53;4972599;28;20039;-45
2023/09/07 09:53:39;;;;;;;16.52;6.90;;;;;;;22.36;84.35;101016.78;4956314;28;20583;-45
2023/09/07 09:56:06;;;;;;;12.70;6.53;;;;;;;22.36;83.98;101011.16;4973703;28;20153;-45
2023/09/07 09:58:33;;;;;;;10.45;6.18;;;;;;;22.37;83.83;101015.53;4972823;28;20051;-47
2023/09/07 10:01:01;;;;;;;15.38;6.03;;;;;;;22.40;83.66;101009.06;4969326;28;20051;-54
2023/09/07 10:03:45;;;;;;;17.10;6.68;;;;;;;22.48;83.73;101004.16;4962509;28;20063;-45
2023/09/07 10:06:24;;;;;;;15.35;6.60;;;;;;;22.83;82.85;101014.25;4968405;28;20042;-45
2023/09/07 10:09:01;;;;;;;9.43;6.25;;;;;;;23.18;82.04;101016.63;4968007;28;20133;-46
2023/09/07 10:11:37;;;;;;;11.88;6.22;;;;;;;23.82;80.40;101012.84;4972428;28;20097;-46
2023/09/07 10:14:05;;;;;;;16.40;6.53;;;;;;;24.57;77.92;101022.41;4973288;28;20089;-45
2023/09/07 10:16:59;;;;;;;14.05;6.47;;;;;;;25.03;77.37;101012.19;4972143;28;20416;-44
2023/09/07 10:19:26;;;;;;;15.25;7.25;;;;;;;25.36;75.13;101013.91;4965920;28;20382;-43
2023/09/07 10:21:54;;;;;;;17.80;6.50;;;;;;;25.57;74.17;101013.44;4971113;28;20047;-42
2023/09/07 10:24:24;;;;;;;13.90;6.18;;;;;;;25.86;73.19;101007.84;4972272;28;20125;-42
2023/09/07 10:27:05;;;;;;;19.15;5.43;;;;;;;26.34;72.29;101018.38;4970956;28;20056;-43
2023/09/07 10:29:46;;;;;;;16.23;6.13;;;;;;;26.95;70.53;101013.41;4971866;28;20043;-43
2023/09/07 10:32:19;;;;;;;14.95;5.97;;;;;;;27.49;66.93;101015.44;4969269;28;20058;-43
2023/09/07 10:34:48;;;;;;;11.68;5.68;;;;;;;27.72;65.61;101012.25;4954187;28;20050;-43
2023/09/07 10:37:15;;;;;;;14.25;5.80;;;;;;;27.59;65.00;101006.56;4969709;28;20687;-43
2023/09/07 10:39:44;;;;;;;16.45;5.72;;;;;;;27.54;64.02;101007.13;4965095;28;20047;-42
2023/09/07 10:42:24;;;;;;;10.13;6.55;;;;;;;27.31;65.29;101006.63;4968094;28;20509;-43
2023/09/07 10:44:52;;;;;;;23.37;6.83;;;;;;;26.92;64.65;101008.63;4971244;28;20945;-42
2023/09/07 10:47:20;;;;;;;14.00;6.20;;;;;;;26.34;65.46;100998.50;4969295;28;20307;-43
2023/09/07 10:49:47;;;;;;;14.45;6.40;;;;;;;25.74;66.63;100998.00;4971858;28;20485;-43
2023/09/07 10:52:14;;;;;;;15.02;6.50;;;;;;;25.30;67.28;101007.16;4972127;28;20051;-42
2023/09/07 10:54:41;;;;;;;11.73;5.78;;;;;;;25.01;68.50;101003.34;4970564;28;20097;-43
2023/09/07 10:57:09;;;;;;;15.90;6.85;;;;;;;24.77;69.12;101000.59;4971765;28;20046;-42
2023/09/07 10:59:36;;;;;;;16.33;6.75;;;;;;;24.58;69.60;100998.53;4972458;28;20047;-43
2023/09/07 11:02:06;;;;;;;12.93;5.78;;;;;;;24.43;70.29;100990.75;4968487;28;20098;-43
2023/09/07 11:04:34;;;;;;;14.88;6.50;;;;;;;24.30;70.46;100999.09;4964345;28;20065;-43
2023/09/07 11:07:02;;;;;;;15.25;6.15;;;;;;;24.17;70.68;100996.06;4971187;28;20053;-45
2023/09/07 11:09:32;;;;;;;12.13;5.93;;;;;;;24.06;70.87;100986.97;4969301;28;20133;-47
2023/09/07 11:12:06;;;;;;;18.75;6.85;;;;;;;23.93;71.04;100986.00;4969816;28;20050;-45
2023/09/07 11:14:33;;;;;;;17.77;6.57;;;;;;;23.80;71.45;100978.56;4968545;28;20058;-49
2023/09/07 11:17:03;;;;;;;13.63;5.75;;;;;;;23.78;71.80;100978.16;4969445;28;20094;-49
2023/09/07 11:19:33;;;;;;;12.63;5.90;;;;;;;23.84;72.09;100991.41;4971266;28;20059;-42
2023/09/07 11:22:00;;;;;;;19.48;6.85;;;;;;;23.93;72.02;100985.19;4968536;28;20109;-43
2023/09/07 11:24:28;;;;;;;12.93;6.03;;;;;;;23.99;72.09;100987.09;4969453;28;20043;-50